SBAT

Details ICAO SBAT (AFL)
Name ALTA FLORESTA
Region Brazil
Timezone America/Cuiaba (UTC-3.0)
Plans Departing 16
Arriving 22
Stats Elevation 947 ft / 289 m (AMSL)
Location -9.866090° -56.106204°
Runways 1
Magnetic Variation 17.845° W
Sunrise 2017-12-18 09:21:30 UTC / 2017-12-18 06:21:30 Local
Sunset 2017-12-18 22:03:25 UTC / 2017-12-18 19:03:25 Local
Advertisement - Login to hide

Runways

ID Width Length Bearing (true) Bearing (mag) Surface Threshold Offset Overrun Length
03 100 ft / 30 m 8,288 ft / 2,526 m 18.48° 36.32° Asphalt 1,312 ft / 400 m 190 ft / 58 m
21 100 ft / 30 m 8,288 ft / 2,526 m 198.48° 216.32° Asphalt 0 ft / 0 m 195 ft / 59 m

Map

Weather


0- 5 10 15 20 25 30 35+ Temperature / ° C

Clouds and Precipitation
Forecast for 2017-12-18 06:00 UTC. Updated 20 minutes ago

Ground ~20,000 ft ~40,000 ft Winds

METAR

Not found

TAF

TAF SBAT 172200Z 1800/1812 36005KT 9999 FEW020 TN22/1808Z TX26/1812Z BECMG 1809/1811 33005KT RMK PEH
Warning: Do not use this data for real-world aviation or navigation. No guarantee of current accuracy is given.